createdAt,value
2018-06-21T00:00:52.443Z,21.10
2018-06-21T00:03:22.143Z,21.10
2018-06-21T00:05:51.798Z,21.00
2018-06-21T00:08:21.562Z,21.00
2018-06-21T00:10:51.215Z,21.00
2018-06-21T00:13:20.891Z,21.00
2018-06-21T00:15:51.351Z,21.00
2018-06-21T00:18:21.051Z,21.00
2018-06-21T00:20:50.737Z,20.90
2018-06-21T00:23:20.443Z,20.90
2018-06-21T00:25:50.119Z,20.90
2018-06-21T00:28:19.836Z,20.90
2018-06-21T00:30:49.518Z,20.80
2018-06-21T00:33:19.219Z,20.80
2018-06-21T00:35:48.877Z,20.80
2018-06-21T00:38:18.571Z,20.70
2018-06-21T00:40:48.231Z,20.70
2018-06-21T00:43:17.957Z,20.70
2018-06-21T00:45:51.564Z,20.70
2018-06-21T00:48:21.317Z,20.60
2018-06-21T00:50:50.983Z,20.60
2018-06-21T00:53:20.691Z,20.60
2018-06-21T00:56:01.575Z,20.50
2018-06-21T00:58:31.297Z,20.50
2018-06-21T01:01:00.987Z,20.50
2018-06-21T01:03:30.719Z,20.50
2018-06-21T01:06:00.427Z,20.50
2018-06-21T01:08:30.146Z,20.40
2018-06-21T01:10:59.802Z,20.40
2018-06-21T01:13:29.488Z,20.30
2018-06-21T01:15:59.193Z,20.30
2018-06-21T01:18:28.878Z,20.20
2018-06-21T01:20:58.552Z,20.20
2018-06-21T01:23:28.246Z,20.10
2018-06-21T01:25:57.921Z,20.10
2018-06-21T01:28:27.771Z,20.10
2018-06-21T01:30:57.487Z,20.00
2018-06-21T01:33:27.187Z,20.00
2018-06-21T01:35:56.864Z,20.00
2018-06-21T01:38:26.927Z,20.10
2018-06-21T01:40:56.607Z,20.10
2018-06-21T01:43:26.306Z,20.10
2018-06-21T01:45:56.023Z,20.00
2018-06-21T01:48:25.711Z,20.00
2018-06-21T01:50:55.397Z,20.00
2018-06-21T01:53:25.075Z,19.90
2018-06-21T01:55:54.768Z,19.80
2018-06-21T01:58:24.457Z,19.80
2018-06-21T02:00:54.122Z,19.80
2018-06-21T02:03:23.820Z,19.80
2018-06-21T02:05:53.463Z,19.70
2018-06-21T02:08:23.171Z,19.70
2018-06-21T02:10:52.831Z,19.80
2018-06-21T02:13:22.511Z,19.70
2018-06-21T02:15:52.163Z,19.70
2018-06-21T02:18:21.826Z,19.60
2018-06-21T02:20:51.482Z,19.70
2018-06-21T02:23:21.499Z,19.60
2018-06-21T02:25:51.612Z,19.60
2018-06-21T02:28:21.271Z,19.60
2018-06-21T02:30:50.943Z,19.60
2018-06-21T02:33:20.632Z,19.50
2018-06-21T02:35:50.298Z,19.50
2018-06-21T02:38:19.978Z,19.50
2018-06-21T02:40:49.634Z,19.50
2018-06-21T02:43:19.307Z,19.40
2018-06-21T02:45:50.767Z,19.40
2018-06-21T02:48:20.478Z,19.30
2018-06-21T02:50:50.139Z,19.30
2018-06-21T02:53:19.794Z,19.30
2018-06-21T02:55:49.486Z,19.30
2018-06-21T02:58:19.155Z,19.30
2018-06-21T03:00:48.864Z,19.20
2018-06-21T03:03:18.606Z,19.20
2018-06-21T03:05:48.319Z,19.20
2018-06-21T03:08:17.990Z,19.20
2018-06-21T03:10:47.704Z,19.10
2018-06-21T03:13:17.427Z,19.10
2018-06-21T03:15:47.119Z,19.10
2018-06-21T03:18:16.832Z,19.10
2018-06-21T03:20:46.524Z,19.20
2018-06-21T03:23:16.187Z,19.20
2018-06-21T03:25:45.882Z,19.20
2018-06-21T03:28:15.551Z,19.20
2018-06-21T03:30:45.259Z,19.20
2018-06-21T03:33:14.930Z,19.20
2018-06-21T03:35:44.646Z,19.20
2018-06-21T03:38:14.314Z,19.20
2018-06-21T03:40:44.019Z,19.20
2018-06-21T03:43:13.688Z,19.20
2018-06-21T03:45:48.949Z,19.20
2018-06-21T03:48:18.652Z,19.10
2018-06-21T03:50:48.400Z,19.00
2018-06-21T03:53:18.075Z,19.00
2018-06-21T03:55:47.837Z,19.00
2018-06-21T03:58:17.515Z,19.00
2018-06-21T04:03:27.207Z,19.00
2018-06-21T04:05:58.099Z,19.00
2018-06-21T04:08:29.215Z,19.00
2018-06-21T04:11:01.187Z,18.90
2018-06-21T04:13:31.205Z,18.90
2018-06-21T04:16:00.907Z,19.00
2018-06-21T04:18:36.399Z,19.00
2018-06-21T04:21:07.451Z,19.00
2018-06-21T04:23:37.140Z,19.00
2018-06-21T04:26:06.867Z,19.00
2018-06-21T04:28:45.445Z,19.00
2018-06-21T04:31:16.227Z,19.00
2018-06-21T04:33:47.376Z,19.10
2018-06-21T04:36:17.135Z,19.20
2018-06-21T04:38:48.792Z,19.30
2018-06-21T04:41:18.518Z,19.30
2018-06-21T04:43:48.225Z,19.30
2018-06-21T04:46:22.131Z,19.40
2018-06-21T04:48:51.999Z,19.40
2018-06-21T04:51:21.712Z,19.40
2018-06-21T04:53:51.379Z,19.30
2018-06-21T04:56:21.083Z,19.30
2018-06-21T04:58:50.907Z,19.30
2018-06-21T05:01:20.595Z,19.30
2018-06-21T05:03:50.415Z,19.40
2018-06-21T05:06:20.331Z,19.40
2018-06-21T05:08:50.205Z,19.50
2018-06-21T05:11:20.069Z,19.60
2018-06-21T05:13:49.743Z,19.70
2018-06-21T05:16:19.435Z,19.80
2018-06-21T05:18:49.099Z,19.90
2018-06-21T05:21:18.803Z,19.90
2018-06-21T05:23:48.467Z,20.00
2018-06-21T05:26:18.218Z,20.10
2018-06-21T05:28:48.049Z,20.10
2018-06-21T05:31:17.970Z,20.20
2018-06-21T05:33:47.967Z,20.30
2018-06-21T05:36:17.675Z,20.40
2018-06-21T05:38:47.871Z,20.50
2018-06-21T05:41:17.546Z,20.70
2018-06-21T05:43:47.214Z,20.90
2018-06-21T05:46:16.902Z,21.20
2018-06-21T05:48:46.830Z,21.60
2018-06-21T05:51:16.533Z,22.00
2018-06-21T05:53:46.227Z,22.40
2018-06-21T05:56:15.947Z,22.70
2018-06-21T05:58:45.637Z,23.00
2018-06-21T06:01:15.371Z,23.30
2018-06-21T06:03:45.154Z,23.60
2018-06-21T06:06:14.939Z,23.90
2018-06-21T06:08:44.620Z,23.90
2018-06-21T06:11:14.326Z,23.90
2018-06-21T06:13:44.004Z,24.10
2018-06-21T06:16:13.746Z,24.50
2018-06-21T06:18:43.411Z,24.60
2018-06-21T06:21:13.244Z,24.70
2018-06-21T06:23:43.226Z,24.60
2018-06-21T06:26:12.964Z,24.90
2018-06-21T06:28:42.860Z,25.00
2018-06-21T06:31:12.986Z,25.30
2018-06-21T06:33:42.662Z,25.50
2018-06-21T06:36:12.389Z,25.60
2018-06-21T06:38:42.079Z,25.70
2018-06-21T06:41:11.869Z,25.80
2018-06-21T06:43:41.642Z,26.00
2018-06-21T06:46:11.397Z,26.10
2018-06-21T06:48:41.338Z,26.30
2018-06-21T06:51:11.223Z,26.30
2018-06-21T06:53:41.067Z,26.40
2018-06-21T06:56:10.743Z,26.70
2018-06-21T06:58:40.370Z,26.70
2018-06-21T07:01:10.091Z,26.80
2018-06-21T07:03:40.163Z,26.80
2018-06-21T07:08:39.463Z,26.90
2018-06-21T07:11:09.304Z,27.10
2018-06-21T07:13:38.958Z,27.10
2018-06-21T07:16:08.675Z,27.10
2018-06-21T07:18:38.439Z,27.00
2018-06-21T07:21:08.132Z,27.00
2018-06-21T07:23:37.802Z,27.10
2018-06-21T07:26:07.479Z,27.10
2018-06-21T07:28:37.164Z,27.20
2018-06-21T07:31:06.942Z,27.30
2018-06-21T07:33:36.623Z,27.10
2018-06-21T07:36:06.500Z,27.10
2018-06-21T07:38:36.412Z,27.20
2018-06-21T07:41:06.067Z,27.40
2018-06-21T07:43:35.776Z,27.30
2018-06-21T07:46:05.546Z,27.30
2018-06-21T07:48:35.242Z,27.40
2018-06-21T07:51:04.912Z,27.60
2018-06-21T07:53:34.593Z,27.50
2018-06-21T07:56:04.896Z,27.30
2018-06-21T07:58:34.580Z,27.30
2018-06-21T08:01:04.236Z,27.40
2018-06-21T08:03:33.962Z,27.40
2018-06-21T08:06:03.619Z,27.50
2018-06-21T08:08:33.318Z,27.60
2018-06-21T08:11:03.015Z,27.50
2018-06-21T08:13:32.684Z,27.50
2018-06-21T08:16:02.347Z,27.50
2018-06-21T08:18:32.126Z,27.60
2018-06-21T08:21:01.804Z,27.50
2018-06-21T08:23:31.492Z,27.40
2018-06-21T08:26:01.161Z,27.30
2018-06-21T08:28:30.858Z,27.20
2018-06-21T08:31:00.535Z,27.10
2018-06-21T08:33:30.296Z,27.10
2018-06-21T08:36:00.027Z,27.10
2018-06-21T08:38:29.715Z,27.00
2018-06-21T08:40:59.407Z,26.90
2018-06-21T08:43:30.330Z,26.80
2018-06-21T08:46:00.083Z,26.90
2018-06-21T08:48:29.910Z,27.00
2018-06-21T08:50:59.570Z,27.00
2018-06-21T08:53:29.263Z,27.00
2018-06-21T08:55:59.320Z,26.90
2018-06-21T08:58:29.183Z,26.90
2018-06-21T09:00:59.079Z,26.90
2018-06-21T09:03:28.791Z,27.00
2018-06-21T09:05:58.471Z,27.00
2018-06-21T09:08:28.167Z,27.00
2018-06-21T09:10:57.843Z,27.30
2018-06-21T09:13:33.199Z,27.60
2018-06-21T09:16:03.662Z,27.30
2018-06-21T09:18:33.367Z,26.90
2018-06-21T09:21:03.441Z,26.50
2018-06-21T09:23:33.330Z,26.30
2018-06-21T09:26:03.423Z,26.10
2018-06-21T09:28:33.211Z,26.10
2018-06-21T09:31:02.867Z,26.00
2018-06-21T09:33:32.567Z,26.10
2018-06-21T09:38:36.874Z,26.40
2018-06-21T09:41:12.065Z,26.20
2018-06-21T09:43:50.294Z,26.00
2018-06-21T09:46:33.869Z,26.20
2018-06-21T09:48:53.079Z,26.30
2018-06-21T09:51:22.759Z,26.50
2018-06-21T09:53:52.422Z,26.70
2018-06-21T09:56:22.135Z,26.70
2018-06-21T09:58:51.880Z,26.70
2018-06-21T10:01:21.724Z,26.80
2018-06-21T10:03:51.406Z,26.80
2018-06-21T10:06:21.090Z,26.90
2018-06-21T10:08:50.835Z,26.90
2018-06-21T10:11:20.619Z,27.10
2018-06-21T10:13:50.290Z,27.20
2018-06-21T10:16:19.978Z,27.20
2018-06-21T10:18:49.651Z,27.20
2018-06-21T10:21:19.333Z,27.20
2018-06-21T10:23:48.983Z,27.10
2018-06-21T10:26:18.663Z,27.10
2018-06-21T10:28:48.330Z,26.90
2018-06-21T10:31:17.994Z,26.80
2018-06-21T10:33:47.646Z,26.80
2018-06-21T10:36:17.321Z,26.90
2018-06-21T10:38:46.986Z,26.80
2018-06-21T10:41:16.686Z,26.70
2018-06-21T10:43:46.364Z,26.60
2018-06-21T10:46:16.083Z,26.50
2018-06-21T10:48:45.763Z,26.60
2018-06-21T10:51:15.459Z,26.50
2018-06-21T10:53:45.235Z,26.50
2018-06-21T10:56:14.931Z,26.60
2018-06-21T10:58:44.721Z,26.60
2018-06-21T11:01:14.399Z,26.50
2018-06-21T11:03:44.107Z,26.60
2018-06-21T11:06:13.791Z,26.70
2018-06-21T11:08:43.524Z,26.60
2018-06-21T11:11:13.106Z,26.60
2018-06-21T11:13:42.775Z,26.60
2018-06-21T11:16:12.475Z,26.60
2018-06-21T11:18:42.204Z,26.50
2018-06-21T11:21:11.890Z,26.50
2018-06-21T11:23:41.551Z,26.50
2018-06-21T11:26:11.539Z,26.40
2018-06-21T11:28:42.992Z,26.30
2018-06-21T11:31:12.676Z,26.40
2018-06-21T11:33:42.334Z,26.50
2018-06-21T11:36:14.467Z,26.50
2018-06-21T11:38:44.146Z,26.50
2018-06-21T11:41:13.850Z,26.40
2018-06-21T11:43:43.536Z,26.40
2018-06-21T11:46:13.223Z,26.30
2018-06-21T11:48:42.891Z,26.30
2018-06-21T11:51:14.161Z,26.50
2018-06-21T11:53:47.143Z,26.60
2018-06-21T11:56:16.870Z,26.70
2018-06-21T11:58:46.544Z,26.60
2018-06-21T12:01:17.819Z,26.50
2018-06-21T12:03:48.091Z,26.50
2018-06-21T12:06:17.832Z,26.40
2018-06-21T12:08:47.582Z,26.40
2018-06-21T12:11:17.562Z,26.40
2018-06-21T12:16:16.543Z,26.30
2018-06-21T12:18:46.330Z,26.30
2018-06-21T12:21:16.011Z,26.20
2018-06-21T12:23:45.719Z,26.30
2018-06-21T12:26:15.457Z,26.40
2018-06-21T12:28:45.314Z,26.30
2018-06-21T12:31:14.987Z,26.20
2018-06-21T12:33:44.744Z,26.20
2018-06-21T12:36:14.755Z,26.30
2018-06-21T12:38:44.442Z,26.30
2018-06-21T12:41:14.111Z,26.30
2018-06-21T12:43:43.851Z,26.20
2018-06-21T12:46:13.871Z,26.10
2018-06-21T12:48:43.583Z,26.20
2018-06-21T12:51:13.276Z,26.20
2018-06-21T12:53:43.008Z,26.30
2018-06-21T12:56:12.744Z,26.30
2018-06-21T12:58:42.447Z,26.40
2018-06-21T13:01:12.155Z,26.40
2018-06-21T13:03:41.892Z,26.30
2018-06-21T13:06:11.595Z,26.20
2018-06-21T13:08:52.543Z,26.30
2018-06-21T13:11:33.582Z,26.40
2018-06-21T13:14:14.501Z,26.50
2018-06-21T13:16:44.627Z,26.50
2018-06-21T13:19:14.423Z,26.50
2018-06-21T13:21:44.114Z,26.50
2018-06-21T13:24:13.823Z,26.60
2018-06-21T13:26:43.584Z,26.70
2018-06-21T13:29:13.374Z,26.70
2018-06-21T13:31:43.058Z,26.70
2018-06-21T13:34:12.779Z,26.60
2018-06-21T13:36:42.654Z,26.60
2018-06-21T13:39:12.358Z,26.70
2018-06-21T13:41:42.083Z,26.70
2018-06-21T13:44:11.783Z,26.70
2018-06-21T13:46:41.871Z,26.60
2018-06-21T13:49:11.559Z,26.40
2018-06-21T13:51:41.664Z,26.40
2018-06-21T13:54:11.395Z,26.40
2018-06-21T13:59:10.388Z,26.40
2018-06-21T14:01:40.122Z,26.30
2018-06-21T14:04:09.826Z,26.30
2018-06-21T14:06:39.507Z,26.30
2018-06-21T14:09:10.969Z,26.30
2018-06-21T14:11:41.395Z,26.30
2018-06-21T14:14:11.208Z,26.30
2018-06-21T14:16:40.943Z,26.30
2018-06-21T14:19:10.693Z,26.30
2018-06-21T14:21:40.571Z,26.20
2018-06-21T14:24:12.323Z,26.10
2018-06-21T14:26:43.234Z,26.00
2018-06-21T14:29:13.614Z,26.00
2018-06-21T14:31:43.299Z,25.90
2018-06-21T14:34:13.018Z,25.80
2018-06-21T14:36:42.716Z,25.70
2018-06-21T14:39:12.415Z,25.70
2018-06-21T14:41:42.086Z,25.70
2018-06-21T14:44:12.171Z,25.70
2018-06-21T14:46:42.039Z,25.70
2018-06-21T14:49:11.734Z,25.60
2018-06-21T14:51:41.403Z,25.50
2018-06-21T14:54:11.104Z,25.60
2018-06-21T14:56:40.918Z,25.90
2018-06-21T14:59:10.615Z,25.90
2018-06-21T15:01:40.312Z,25.80
2018-06-21T15:04:10.055Z,25.60
2018-06-21T15:06:40.460Z,25.60
2018-06-21T15:09:12.103Z,25.60
2018-06-21T15:11:41.827Z,25.60
2018-06-21T15:14:11.543Z,25.80
2018-06-21T15:16:41.239Z,25.90
2018-06-21T15:19:10.919Z,25.80
2018-06-21T15:21:41.103Z,25.70
2018-06-21T15:24:10.784Z,25.70
2018-06-21T15:26:40.491Z,25.60
2018-06-21T15:29:10.270Z,25.40
2018-06-21T15:31:41.451Z,25.30
2018-06-21T15:34:11.122Z,25.30
2018-06-21T15:36:41.207Z,25.20
2018-06-21T15:39:21.499Z,25.10
2018-06-21T15:41:51.988Z,25.10
2018-06-21T15:44:21.678Z,25.00
2018-06-21T15:46:51.466Z,24.90
2018-06-21T15:49:21.108Z,24.70
2018-06-21T15:51:50.823Z,24.60
2018-06-21T15:54:20.479Z,24.50
2018-06-21T15:56:50.163Z,24.50
2018-06-21T15:59:19.810Z,24.30
2018-06-21T16:01:49.516Z,24.10
2018-06-21T16:04:19.214Z,24.10
2018-06-21T16:06:48.900Z,24.10
2018-06-21T16:09:18.567Z,24.20
2018-06-21T16:11:48.247Z,24.10
2018-06-21T16:14:17.963Z,24.00
2018-06-21T16:16:47.626Z,24.00
2018-06-21T16:19:17.291Z,23.90
2018-06-21T16:21:46.978Z,23.70
2018-06-21T16:24:17.023Z,23.70
2018-06-21T16:26:46.687Z,23.60
2018-06-21T16:29:16.347Z,23.60
2018-06-21T16:31:46.055Z,23.60
2018-06-21T16:34:15.787Z,23.70
2018-06-21T16:36:45.479Z,23.50
2018-06-21T16:39:15.186Z,23.50
2018-06-21T16:41:45.075Z,23.50
2018-06-21T16:44:16.372Z,23.60
2018-06-21T16:46:46.831Z,23.50
2018-06-21T16:49:16.595Z,23.40
2018-06-21T16:51:46.507Z,23.30
2018-06-21T16:54:16.179Z,23.20
2018-06-21T16:56:45.850Z,23.20
2018-06-21T16:59:19.133Z,23.20
2018-06-21T17:01:48.995Z,23.30
2018-06-21T17:04:18.686Z,23.30
2018-06-21T17:06:48.410Z,23.30
2018-06-21T17:09:18.238Z,23.30
2018-06-21T17:11:47.881Z,23.20
2018-06-21T17:14:18.495Z,23.20
2018-06-21T17:16:48.151Z,23.10
2018-06-21T17:19:17.827Z,23.00
2018-06-21T17:21:47.493Z,22.90
2018-06-21T17:24:17.186Z,22.90
2018-06-21T17:26:46.883Z,22.90
2018-06-21T17:29:16.565Z,22.80
2018-06-21T17:31:47.959Z,22.80
2018-06-21T17:34:19.784Z,22.70
2018-06-21T17:36:49.467Z,22.80
2018-06-21T17:39:21.699Z,22.80
2018-06-21T17:41:51.570Z,22.80
2018-06-21T17:44:21.279Z,22.80
2018-06-21T17:46:50.943Z,22.80
2018-06-21T17:49:22.388Z,22.70
2018-06-21T17:51:54.556Z,22.70
2018-06-21T17:54:24.265Z,22.70
2018-06-21T17:56:53.911Z,22.70
2018-06-21T17:59:26.933Z,22.70
2018-06-21T18:02:00.780Z,22.70
2018-06-21T18:07:02.955Z,22.60
2018-06-21T18:09:33.559Z,22.50
2018-06-21T18:12:04.246Z,22.50
2018-06-21T18:14:35.205Z,22.50
2018-06-21T18:17:06.081Z,22.30
2018-06-21T18:19:40.576Z,22.20
2018-06-21T18:22:10.696Z,22.10
2018-06-21T18:24:40.391Z,22.10
2018-06-21T18:27:10.657Z,22.10
2018-06-21T18:29:40.719Z,22.00
2018-06-21T18:32:16.181Z,21.90
2018-06-21T18:34:50.147Z,21.80
2018-06-21T18:37:20.619Z,21.80
2018-06-21T18:39:50.436Z,21.70
2018-06-21T18:42:20.191Z,21.60
2018-06-21T18:44:50.386Z,21.40
2018-06-21T18:47:20.525Z,21.20
2018-06-21T18:49:50.215Z,21.00
2018-06-21T18:52:19.891Z,20.90
2018-06-21T18:54:49.579Z,20.70
2018-06-21T18:57:19.609Z,20.70
2018-06-21T18:59:49.327Z,20.70
2018-06-21T19:02:19.682Z,20.70
2018-06-21T19:04:49.498Z,20.70
2018-06-21T19:07:24.903Z,20.70
2018-06-21T19:10:00.179Z,20.70
2018-06-21T19:12:29.858Z,20.70
2018-06-21T19:14:59.564Z,20.60
2018-06-21T19:17:29.451Z,20.70
2018-06-21T19:19:59.478Z,20.60
2018-06-21T19:22:29.678Z,20.50
2018-06-21T19:24:59.411Z,20.40
2018-06-21T19:27:29.070Z,20.40
2018-06-21T19:29:58.879Z,20.40
2018-06-21T19:32:28.538Z,20.50
2018-06-21T19:34:58.211Z,20.40
2018-06-21T19:37:27.927Z,20.30
2018-06-21T19:39:57.591Z,20.20
2018-06-21T19:42:27.319Z,20.20
2018-06-21T19:44:56.979Z,20.20
2018-06-21T19:47:26.667Z,20.10
2018-06-21T19:49:56.562Z,20.10
2018-06-21T19:52:26.247Z,20.10
2018-06-21T19:54:55.917Z,20.10
2018-06-21T19:57:25.647Z,20.10
2018-06-21T19:59:55.319Z,20.00
2018-06-21T20:02:30.491Z,20.00
2018-06-21T20:05:00.171Z,19.90
2018-06-21T20:07:29.888Z,19.90
2018-06-21T20:09:59.571Z,19.80
2018-06-21T20:12:29.271Z,19.70
2018-06-21T20:15:00.872Z,19.60
2018-06-21T20:17:31.804Z,19.50
2018-06-21T20:20:07.225Z,19.40
2018-06-21T20:22:37.138Z,19.30
2018-06-21T20:25:06.835Z,19.30
2018-06-21T20:27:36.538Z,19.40
2018-06-21T20:30:06.575Z,19.40
2018-06-21T20:32:36.280Z,19.30
2018-06-21T20:35:05.975Z,19.30
2018-06-21T20:37:36.041Z,19.30
2018-06-21T20:40:07.164Z,19.20
2018-06-21T20:42:38.584Z,19.00
2018-06-21T20:45:10.953Z,18.90
2018-06-21T20:47:41.769Z,18.80
2018-06-21T20:50:12.965Z,18.80
2018-06-21T20:52:42.851Z,18.70
2018-06-21T20:55:13.706Z,18.80
2018-06-21T20:57:45.663Z,18.70
2018-06-21T21:00:18.174Z,18.70
2018-06-21T21:02:49.257Z,18.60
2018-06-21T21:05:20.368Z,18.60
2018-06-21T21:07:52.106Z,18.50
2018-06-21T21:10:23.323Z,18.40
2018-06-21T21:12:54.568Z,18.40
2018-06-21T21:15:25.170Z,18.20
2018-06-21T21:17:56.346Z,18.00
2018-06-21T21:20:28.381Z,17.90
2018-06-21T21:22:58.630Z,17.70
2018-06-21T21:25:31.486Z,17.60
2018-06-21T21:28:03.092Z,17.50
2018-06-21T21:30:33.537Z,17.40
2018-06-21T21:33:03.895Z,17.30
2018-06-21T21:35:33.759Z,17.20
2018-06-21T21:38:04.599Z,17.20
2018-06-21T21:40:36.287Z,17.20
2018-06-21T21:43:07.378Z,17.20
2018-06-21T21:45:38.508Z,17.10
2018-06-21T21:48:10.011Z,17.10
2018-06-21T21:50:41.430Z,17.00
2018-06-21T21:53:12.190Z,17.10
2018-06-21T21:55:42.890Z,17.10
2018-06-21T21:58:12.811Z,17.10
2018-06-21T22:00:54.089Z,17.10
2018-06-21T22:03:24.474Z,17.10
2018-06-21T22:05:54.952Z,17.00
2018-06-21T22:08:28.309Z,16.80
2018-06-21T22:13:29.435Z,16.60
2018-06-21T22:15:59.213Z,16.60
2018-06-21T22:18:30.344Z,16.60
2018-06-21T22:21:00.516Z,16.60
2018-06-21T22:23:31.350Z,16.50
2018-06-21T22:26:02.487Z,16.50
2018-06-21T22:28:34.190Z,16.50
2018-06-21T22:31:05.977Z,16.50
2018-06-21T22:33:37.143Z,16.40
2018-06-21T22:36:07.925Z,16.40
2018-06-21T22:38:38.580Z,16.40
2018-06-21T22:41:09.682Z,16.30
2018-06-21T22:43:41.666Z,16.30
2018-06-21T22:46:13.112Z,16.20
2018-06-21T22:48:43.607Z,16.10
2018-06-21T22:51:13.945Z,16.10
2018-06-21T22:53:45.017Z,16.10
2018-06-21T22:56:16.744Z,16.10
2018-06-21T22:58:48.405Z,16.10
2018-06-21T23:01:20.092Z,16.10
2018-06-21T23:03:50.616Z,16.00
2018-06-21T23:06:23.354Z,15.90
2018-06-21T23:08:53.828Z,15.90
2018-06-21T23:11:24.093Z,15.90
2018-06-21T23:13:54.685Z,15.80
2018-06-21T23:16:24.697Z,15.80
2018-06-21T23:19:05.787Z,15.80
2018-06-21T23:21:35.991Z,15.70
2018-06-21T23:24:06.232Z,15.70
2018-06-21T23:26:36.440Z,15.60
2018-06-21T23:29:06.595Z,15.60
2018-06-21T23:31:38.211Z,15.50
2018-06-21T23:34:08.471Z,15.30
2018-06-21T23:36:38.229Z,15.20
2018-06-21T23:39:09.587Z,15.20
2018-06-21T23:41:39.378Z,15.10
2018-06-21T23:44:09.303Z,15.10
2018-06-21T23:46:39.068Z,15.20
2018-06-21T23:49:08.727Z,15.20
2018-06-21T23:51:39.254Z,15.30
2018-06-21T23:54:11.420Z,15.30
2018-06-21T23:56:42.151Z,15.30
2018-06-21T23:59:12.170Z,15.20
